A10 weather

Pinjarra North Airstrip
Pinjarra, Western Australia, Australia

Public forecast

Using degrees Celsius for public forecast. Weather courtesy of forecast.io.

METAR (pilot weather report)

Closest report is Perth Jandakot Airport, 29.0 nm (53.7 km) N. Retrieved 2019/05/21 05:00 UTC (6 minutes ago):

YPJT 210500Z AUTO 24004KT 200V260 9999 // BKN042 OVC055 19/12 Q1022

TAF (pilot weather forecast)

Forecast is more than 6 hours old.

Closest forecast is Perth Jandakot Airport, 29.0 nm (53.7 km) N. Retrieved 2019/05/20 18:00 UTC (11 hours ago):

TAF YPJT 201634Z 2018/2112 VRB03KT 9999 -SHRA SCT020 BKN045 FM210300 04005KT 9999 SCT030 BKN045 FM210600 VRB05KT 9999 BKN045 INTER 2018/2021 4000 SHRA SCT010 TEMPO 2021/2103 3000 DZ BKN010